sensor_id;sensor_type;location;lat;lon;timestamp;P1;durP1;ratioP1;P2;durP2;ratioP2
55647;SDS011;45266;48.756;9.246;2023-07-29T00:00:30;4.13;;;1.80;;
55647;SDS011;45266;48.756;9.246;2023-07-29T00:01:33;2.83;;;1.95;;
55647;SDS011;45266;48.756;9.246;2023-07-29T00:02:36;2.78;;;1.70;;
55647;SDS011;45266;48.756;9.246;2023-07-29T00:03:37;3.92;;;1.60;;
55647;SDS011;45266;48.756;9.246;2023-07-29T00:04:39;2.22;;;1.80;;
55647;SDS011;45266;48.756;9.246;2023-07-29T00:05:41;5.90;;;2.25;;
55647;SDS011;45266;48.756;9.246;2023-07-29T00:06:43;3.83;;;1.73;;
55647;SDS011;45266;48.756;9.246;2023-07-29T00:07:45;5.43;;;2.10;;
55647;SDS011;45266;48.756;9.246;2023-07-29T00:08:47;4.65;;;2.10;;
55647;SDS011;45266;48.756;9.246;2023-07-29T00:09:49;2.10;;;1.80;;
55647;SDS011;45266;48.756;9.246;2023-07-29T00:10:51;2.88;;;1.80;;
55647;SDS011;45266;48.756;9.246;2023-07-29T00:11:52;3.88;;;1.77;;
55647;SDS011;45266;48.756;9.246;2023-07-29T00:12:54;4.18;;;1.98;;
55647;SDS011;45266;48.756;9.246;2023-07-29T00:13:56;2.83;;;1.65;;
55647;SDS011;45266;48.756;9.246;2023-07-29T00:14:58;4.63;;;1.70;;
55647;SDS011;45266;48.756;9.246;2023-07-29T00:15:59;3.75;;;2.10;;
55647;SDS011;45266;48.756;9.246;2023-07-29T00:17:01;3.95;;;2.05;;
55647;SDS011;45266;48.756;9.246;2023-07-29T00:18:03;3.63;;;1.60;;
55647;SDS011;45266;48.756;9.246;2023-07-29T00:19:06;3.80;;;1.90;;
55647;SDS011;45266;48.756;9.246;2023-07-29T00:20:08;3.13;;;2.10;;
55647;SDS011;45266;48.756;9.246;2023-07-29T00:21:10;5.43;;;1.80;;
55647;SDS011;45266;48.756;9.246;2023-07-29T00:22:13;2.65;;;1.80;;
55647;SDS011;45266;48.756;9.246;2023-07-29T00:23:18;4.50;;;1.83;;
55647;SDS011;45266;48.756;9.246;2023-07-29T00:24:20;4.70;;;2.10;;
55647;SDS011;45266;48.756;9.246;2023-07-29T00:25:22;3.50;;;2.10;;
55647;SDS011;45266;48.756;9.246;2023-07-29T00:26:24;2.17;;;1.83;;
55647;SDS011;45266;48.756;9.246;2023-07-29T00:27:27;2.25;;;1.92;;
55647;SDS011;45266;48.756;9.246;2023-07-29T00:28:29;5.38;;;2.20;;
55647;SDS011;45266;48.756;9.246;2023-07-29T00:29:31;2.88;;;2.05;;
55647;SDS011;45266;48.756;9.246;2023-07-29T00:30:32;2.85;;;1.70;;
55647;SDS011;45266;48.756;9.246;2023-07-29T00:31:36;3.67;;;2.03;;
55647;SDS011;45266;48.756;9.246;2023-07-29T00:32:44;2.13;;;1.67;;
55647;SDS011;45266;48.756;9.246;2023-07-29T00:33:46;4.70;;;2.03;;
55647;SDS011;45266;48.756;9.246;2023-07-29T00:34:48;4.20;;;2.35;;
55647;SDS011;45266;48.756;9.246;2023-07-29T00:35:49;3.70;;;1.90;;
55647;SDS011;45266;48.756;9.246;2023-07-29T00:36:51;3.97;;;2.25;;
55647;SDS011;45266;48.756;9.246;2023-07-29T00:37:53;2.90;;;2.28;;
55647;SDS011;45266;48.756;9.246;2023-07-29T00:38:55;3.30;;;2.10;;
55647;SDS011;45266;48.756;9.246;2023-07-29T00:39:58;4.07;;;1.77;;
55647;SDS011;45266;48.756;9.246;2023-07-29T00:41:00;3.28;;;1.95;;
55647;SDS011;45266;48.756;9.246;2023-07-29T00:42:04;3.85;;;1.92;;
55647;SDS011;45266;48.756;9.246;2023-07-29T00:43:06;2.63;;;1.77;;
55647;SDS011;45266;48.756;9.246;2023-07-29T00:44:08;5.43;;;2.15;;
55647;SDS011;45266;48.756;9.246;2023-07-29T00:45:10;3.10;;;2.00;;
55647;SDS011;45266;48.756;9.246;2023-07-29T00:46:12;2.83;;;1.80;;
55647;SDS011;45266;48.756;9.246;2023-07-29T00:47:14;4.63;;;1.92;;
55647;SDS011;45266;48.756;9.246;2023-07-29T00:48:17;5.90;;;2.40;;
55647;SDS011;45266;48.756;9.246;2023-07-29T00:49:19;2.03;;;1.90;;
55647;SDS011;45266;48.756;9.246;2023-07-29T00:50:22;3.30;;;2.40;;
55647;SDS011;45266;48.756;9.246;2023-07-29T00:51:24;3.95;;;2.10;;
55647;SDS011;45266;48.756;9.246;2023-07-29T00:52:26;3.90;;;2.03;;
55647;SDS011;45266;48.756;9.246;2023-07-29T00:53:27;4.05;;;2.22;;
55647;SDS011;45266;48.756;9.246;2023-07-29T00:54:29;5.40;;;2.03;;
55647;SDS011;45266;48.756;9.246;2023-07-29T00:55:31;4.07;;;1.90;;
55647;SDS011;45266;48.756;9.246;2023-07-29T00:56:33;5.07;;;2.35;;
55647;SDS011;45266;48.756;9.246;2023-07-29T00:57:36;7.47;;;2.13;;
55647;SDS011;45266;48.756;9.246;2023-07-29T00:58:38;2.80;;;1.90;;
55647;SDS011;45266;48.756;9.246;2023-07-29T00:59:40;3.35;;;2.13;;
55647;SDS011;45266;48.756;9.246;2023-07-29T01:00:42;4.10;;;2.03;;
55647;SDS011;45266;48.756;9.246;2023-07-29T01:01:44;3.70;;;2.17;;
55647;SDS011;45266;48.756;9.246;2023-07-29T01:02:46;4.38;;;2.03;;
55647;SDS011;45266;48.756;9.246;2023-07-29T01:03:48;3.75;;;2.20;;
55647;SDS011;45266;48.756;9.246;2023-07-29T01:04:54;5.88;;;3.15;;
55647;SDS011;45266;48.756;9.246;2023-07-29T01:07:33;4.53;;;1.90;;
55647;SDS011;45266;48.756;9.246;2023-07-29T01:09:51;2.78;;;1.95;;
55647;SDS011;45266;48.756;9.246;2023-07-29T01:11:18;3.72;;;1.95;;
55647;SDS011;45266;48.756;9.246;2023-07-29T01:12:37;3.92;;;2.20;;
55647;SDS011;45266;48.756;9.246;2023-07-29T01:13:50;1.90;;;1.80;;
55647;SDS011;45266;48.756;9.246;2023-07-29T01:15:01;4.18;;;2.20;;
55647;SDS011;45266;48.756;9.246;2023-07-29T01:16:22;4.47;;;2.40;;
55647;SDS011;45266;48.756;9.246;2023-07-29T01:18:47;3.45;;;2.10;;
55647;SDS011;45266;48.756;9.246;2023-07-29T01:21:12;7.32;;;2.33;;
55647;SDS011;45266;48.756;9.246;2023-07-29T01:22:16;3.72;;;2.17;;
55647;SDS011;45266;48.756;9.246;2023-07-29T01:23:25;2.60;;;2.40;;
55647;SDS011;45266;48.756;9.246;2023-07-29T01:24:30;5.43;;;2.17;;
55647;SDS011;45266;48.756;9.246;2023-07-29T01:25:35;3.00;;;2.28;;
55647;SDS011;45266;48.756;9.246;2023-07-29T01:26:37;6.00;;;2.40;;
55647;SDS011;45266;48.756;9.246;2023-07-29T01:27:42;2.28;;;2.08;;
55647;SDS011;45266;48.756;9.246;2023-07-29T01:28:50;4.70;;;2.10;;
55647;SDS011;45266;48.756;9.246;2023-07-29T01:29:53;5.65;;;2.42;;
55647;SDS011;45266;48.756;9.246;2023-07-29T01:32:20;2.95;;;1.80;;
55647;SDS011;45266;48.756;9.246;2023-07-29T01:33:33;6.63;;;2.00;;
55647;SDS011;45266;48.756;9.246;2023-07-29T01:36:21;4.05;;;2.00;;
55647;SDS011;45266;48.756;9.246;2023-07-29T01:37:29;4.85;;;2.25;;
55647;SDS011;45266;48.756;9.246;2023-07-29T01:38:38;6.00;;;2.25;;
55647;SDS011;45266;48.756;9.246;2023-07-29T01:39:46;1.80;;;1.70;;
55647;SDS011;45266;48.756;9.246;2023-07-29T01:40:51;3.70;;;2.28;;
55647;SDS011;45266;48.756;9.246;2023-07-29T01:41:54;3.33;;;2.05;;
55647;SDS011;45266;48.756;9.246;2023-07-29T01:42:57;3.80;;;2.17;;
55647;SDS011;45266;48.756;9.246;2023-07-29T01:43:59;2.78;;;2.00;;
55647;SDS011;45266;48.756;9.246;2023-07-29T01:45:04;2.85;;;2.20;;
55647;SDS011;45266;48.756;9.246;2023-07-29T01:46:07;5.07;;;2.20;;
55647;SDS011;45266;48.756;9.246;2023-07-29T01:47:11;3.05;;;2.20;;
55647;SDS011;45266;48.756;9.246;2023-07-29T01:48:13;3.25;;;1.85;;
55647;SDS011;45266;48.756;9.246;2023-07-29T01:49:15;2.95;;;2.08;;
55647;SDS011;45266;48.756;9.246;2023-07-29T01:50:17;5.53;;;2.20;;
55647;SDS011;45266;48.756;9.246;2023-07-29T01:51:19;2.67;;;1.67;;
55647;SDS011;45266;48.756;9.246;2023-07-29T01:52:22;3.42;;;2.05;;
55647;SDS011;45266;48.756;9.246;2023-07-29T01:53:24;2.28;;;2.05;;
55647;SDS011;45266;48.756;9.246;2023-07-29T01:54:27;2.95;;;2.10;;
55647;SDS011;45266;48.756;9.246;2023-07-29T01:55:34;3.53;;;2.15;;
55647;SDS011;45266;48.756;9.246;2023-07-29T01:56:39;2.70;;;2.20;;
55647;SDS011;45266;48.756;9.246;2023-07-29T01:57:42;4.90;;;2.20;;
55647;SDS011;45266;48.756;9.246;2023-07-29T01:58:46;2.60;;;1.98;;
55647;SDS011;45266;48.756;9.246;2023-07-29T01:59:48;2.10;;;1.90;;
55647;SDS011;45266;48.756;9.246;2023-07-29T02:00:50;3.40;;;2.28;;
55647;SDS011;45266;48.756;9.246;2023-07-29T02:01:52;2.10;;;1.90;;
55647;SDS011;45266;48.756;9.246;2023-07-29T02:02:55;2.58;;;2.05;;
55647;SDS011;45266;48.756;9.246;2023-07-29T02:04:01;2.03;;;1.83;;
55647;SDS011;45266;48.756;9.246;2023-07-29T02:05:25;3.80;;;2.42;;
55647;SDS011;45266;48.756;9.246;2023-07-29T02:06:27;2.33;;;2.03;;
55647;SDS011;45266;48.756;9.246;2023-07-29T02:07:30;3.08;;;2.05;;
55647;SDS011;45266;48.756;9.246;2023-07-29T02:08:36;4.53;;;2.00;;
55647;SDS011;45266;48.756;9.246;2023-07-29T02:09:43;3.03;;;2.00;;
55647;SDS011;45266;48.756;9.246;2023-07-29T02:10:46;4.10;;;1.98;;
55647;SDS011;45266;48.756;9.246;2023-07-29T02:11:51;2.40;;;2.20;;
55647;SDS011;45266;48.756;9.246;2023-07-29T02:12:54;2.92;;;2.05;;
55647;SDS011;45266;48.756;9.246;2023-07-29T02:14:01;4.40;;;2.15;;
55647;SDS011;45266;48.756;9.246;2023-07-29T02:15:04;2.83;;;1.95;;
55647;SDS011;45266;48.756;9.246;2023-07-29T02:16:08;4.43;;;2.10;;
55647;SDS011;45266;48.756;9.246;2023-07-29T02:17:19;2.83;;;2.17;;
55647;SDS011;45266;48.756;9.246;2023-07-29T02:18:29;8.38;;;1.95;;
55647;SDS011;45266;48.756;9.246;2023-07-29T02:19:35;4.03;;;1.98;;
55647;SDS011;45266;48.756;9.246;2023-07-29T02:20:38;2.00;;;1.90;;
55647;SDS011;45266;48.756;9.246;2023-07-29T02:21:52;2.38;;;2.17;;
55647;SDS011;45266;48.756;9.246;2023-07-29T02:22:56;3.85;;;1.92;;
55647;SDS011;45266;48.756;9.246;2023-07-29T02:23:59;3.63;;;1.90;;
55647;SDS011;45266;48.756;9.246;2023-07-29T02:25:02;3.08;;;1.92;;
55647;SDS011;45266;48.756;9.246;2023-07-29T02:26:04;2.67;;;2.03;;
55647;SDS011;45266;48.756;9.246;2023-07-29T02:27:07;4.05;;;2.05;;
55647;SDS011;45266;48.756;9.246;2023-07-29T02:28:09;6.50;;;2.30;;
55647;SDS011;45266;48.756;9.246;2023-07-29T02:29:11;3.05;;;2.13;;
55647;SDS011;45266;48.756;9.246;2023-07-29T02:30:14;3.92;;;2.38;;
55647;SDS011;45266;48.756;9.246;2023-07-29T02:32:25;3.25;;;2.00;;
55647;SDS011;45266;48.756;9.246;2023-07-29T02:33:27;3.17;;;1.98;;
55647;SDS011;45266;48.756;9.246;2023-07-29T02:34:30;3.65;;;2.45;;
55647;SDS011;45266;48.756;9.246;2023-07-29T02:35:33;5.30;;;2.30;;
55647;SDS011;45266;48.756;9.246;2023-07-29T02:36:44;2.97;;;2.33;;
55647;SDS011;45266;48.756;9.246;2023-07-29T02:37:54;3.70;;;2.38;;
55647;SDS011;45266;48.756;9.246;2023-07-29T02:39:03;3.58;;;1.88;;
55647;SDS011;45266;48.756;9.246;2023-07-29T02:40:06;4.32;;;2.22;;
55647;SDS011;45266;48.756;9.246;2023-07-29T02:41:15;2.42;;;2.17;;
55647;SDS011;45266;48.756;9.246;2023-07-29T02:42:24;6.03;;;2.47;;
55647;SDS011;45266;48.756;9.246;2023-07-29T02:43:31;4.05;;;2.10;;
55647;SDS011;45266;48.756;9.246;2023-07-29T02:44:40;5.18;;;2.55;;
55647;SDS011;45266;48.756;9.246;2023-07-29T02:45:50;5.72;;;2.40;;
55647;SDS011;45266;48.756;9.246;2023-07-29T02:46:55;3.50;;;2.22;;
55647;SDS011;45266;48.756;9.246;2023-07-29T02:48:04;3.53;;;2.30;;
55647;SDS011;45266;48.756;9.246;2023-07-29T02:49:06;2.22;;;2.08;;
55647;SDS011;45266;48.756;9.246;2023-07-29T02:50:08;3.45;;;2.38;;
55647;SDS011;45266;48.756;9.246;2023-07-29T02:51:10;3.50;;;2.05;;
55647;SDS011;45266;48.756;9.246;2023-07-29T02:52:16;3.60;;;2.40;;
55647;SDS011;45266;48.756;9.246;2023-07-29T02:53:26;2.53;;;2.10;;
55647;SDS011;45266;48.756;9.246;2023-07-29T02:54:28;2.28;;;2.08;;
55647;SDS011;45266;48.756;9.246;2023-07-29T02:55:31;4.55;;;2.00;;
55647;SDS011;45266;48.756;9.246;2023-07-29T02:56:33;3.90;;;2.20;;
55647;SDS011;45266;48.756;9.246;2023-07-29T02:57:36;3.42;;;2.00;;
55647;SDS011;45266;48.756;9.246;2023-07-29T02:58:38;4.85;;;1.92;;
55647;SDS011;45266;48.756;9.246;2023-07-29T02:59:43;4.63;;;2.28;;
55647;SDS011;45266;48.756;9.246;2023-07-29T03:00:48;2.90;;;2.22;;
55647;SDS011;45266;48.756;9.246;2023-07-29T03:01:54;2.45;;;2.17;;
55647;SDS011;45266;48.756;9.246;2023-07-29T03:02:59;4.47;;;2.20;;
55647;SDS011;45266;48.756;9.246;2023-07-29T03:04:05;3.22;;;2.40;;
55647;SDS011;45266;48.756;9.246;2023-07-29T03:05:10;4.43;;;2.58;;
55647;SDS011;45266;48.756;9.246;2023-07-29T03:06:15;5.45;;;2.50;;
55647;SDS011;45266;48.756;9.246;2023-07-29T03:07:19;2.53;;;2.00;;
55647;SDS011;45266;48.756;9.246;2023-07-29T03:08:24;5.05;;;2.30;;
55647;SDS011;45266;48.756;9.246;2023-07-29T03:09:30;2.53;;;2.33;;
55647;SDS011;45266;48.756;9.246;2023-07-29T03:10:36;2.65;;;2.10;;
55647;SDS011;45266;48.756;9.246;2023-07-29T03:11:40;4.57;;;2.25;;
55647;SDS011;45266;48.756;9.246;2023-07-29T03:12:43;3.53;;;2.20;;
55647;SDS011;45266;48.756;9.246;2023-07-29T03:13:46;5.22;;;2.65;;
55647;SDS011;45266;48.756;9.246;2023-07-29T03:14:50;5.68;;;2.05;;
55647;SDS011;45266;48.756;9.246;2023-07-29T03:16:08;5.22;;;2.10;;
55647;SDS011;45266;48.756;9.246;2023-07-29T03:17:18;3.97;;;2.08;;
55647;SDS011;45266;48.756;9.246;2023-07-29T03:18:20;4.15;;;2.10;;
55647;SDS011;45266;48.756;9.246;2023-07-29T03:19:23;5.75;;;2.10;;
55647;SDS011;45266;48.756;9.246;2023-07-29T03:20:35;3.42;;;2.13;;
55647;SDS011;45266;48.756;9.246;2023-07-29T03:21:40;4.47;;;2.20;;
55647;SDS011;45266;48.756;9.246;2023-07-29T03:22:42;2.78;;;2.03;;
55647;SDS011;45266;48.756;9.246;2023-07-29T03:23:44;3.85;;;2.10;;
55647;SDS011;45266;48.756;9.246;2023-07-29T03:24:47;3.97;;;2.05;;
55647;SDS011;45266;48.756;9.246;2023-07-29T03:26:00;3.45;;;2.20;;
55647;SDS011;45266;48.756;9.246;2023-07-29T03:27:13;6.72;;;2.20;;
55647;SDS011;45266;48.756;9.246;2023-07-29T03:28:17;2.13;;;1.92;;
55647;SDS011;45266;48.756;9.246;2023-07-29T03:29:19;3.45;;;1.77;;
55647;SDS011;45266;48.756;9.246;2023-07-29T03:30:21;2.05;;;1.83;;
55647;SDS011;45266;48.756;9.246;2023-07-29T03:31:23;2.35;;;2.15;;
55647;SDS011;45266;48.756;9.246;2023-07-29T03:32:26;4.15;;;2.20;;
55647;SDS011;45266;48.756;9.246;2023-07-29T03:33:28;3.95;;;2.70;;
55647;SDS011;45266;48.756;9.246;2023-07-29T03:34:30;4.38;;;2.40;;
55647;SDS011;45266;48.756;9.246;2023-07-29T03:35:35;3.30;;;2.20;;
55647;SDS011;45266;48.756;9.246;2023-07-29T03:36:37;6.20;;;2.17;;
55647;SDS011;45266;48.756;9.246;2023-07-29T03:37:40;3.13;;;2.72;;
55647;SDS011;45266;48.756;9.246;2023-07-29T03:38:42;4.03;;;2.05;;
55647;SDS011;45266;48.756;9.246;2023-07-29T03:39:46;3.05;;;2.50;;
55647;SDS011;45266;48.756;9.246;2023-07-29T03:40:50;2.25;;;2.00;;
55647;SDS011;45266;48.756;9.246;2023-07-29T03:41:52;2.60;;;2.40;;
55647;SDS011;45266;48.756;9.246;2023-07-29T03:42:56;3.67;;;2.22;;
55647;SDS011;45266;48.756;9.246;2023-07-29T03:44:09;3.53;;;3.03;;
55647;SDS011;45266;48.756;9.246;2023-07-29T03:45:25;3.72;;;2.35;;
55647;SDS011;45266;48.756;9.246;2023-07-29T03:46:36;3.40;;;2.20;;
55647;SDS011;45266;48.756;9.246;2023-07-29T03:47:44;3.40;;;2.70;;
55647;SDS011;45266;48.756;9.246;2023-07-29T03:48:48;3.45;;;2.30;;
55647;SDS011;45266;48.756;9.246;2023-07-29T03:49:54;4.45;;;2.10;;
55647;SDS011;45266;48.756;9.246;2023-07-29T03:51:12;2.60;;;2.15;;
55647;SDS011;45266;48.756;9.246;2023-07-29T03:52:16;3.40;;;2.60;;
55647;SDS011;45266;48.756;9.246;2023-07-29T03:53:20;2.78;;;2.05;;
55647;SDS011;45266;48.756;9.246;2023-07-29T03:54:26;3.15;;;2.38;;
55647;SDS011;45266;48.756;9.246;2023-07-29T03:57:23;3.42;;;2.35;;
55647;SDS011;45266;48.756;9.246;2023-07-29T03:58:26;2.90;;;2.33;;
55647;SDS011;45266;48.756;9.246;2023-07-29T03:59:28;4.85;;;2.50;;
55647;SDS011;45266;48.756;9.246;2023-07-29T04:00:30;3.60;;;2.40;;
55647;SDS011;45266;48.756;9.246;2023-07-29T04:01:32;3.83;;;2.60;;
55647;SDS011;45266;48.756;9.246;2023-07-29T04:02:35;5.10;;;2.50;;
55647;SDS011;45266;48.756;9.246;2023-07-29T04:03:41;3.35;;;2.47;;
55647;SDS011;45266;48.756;9.246;2023-07-29T04:04:44;3.97;;;2.40;;
55647;SDS011;45266;48.756;9.246;2023-07-29T04:05:59;3.47;;;2.50;;
55647;SDS011;45266;48.756;9.246;2023-07-29T04:07:10;4.30;;;2.42;;
55647;SDS011;45266;48.756;9.246;2023-07-29T04:08:14;2.13;;;1.90;;
55647;SDS011;45266;48.756;9.246;2023-07-29T04:09:20;3.08;;;2.05;;
55647;SDS011;45266;48.756;9.246;2023-07-29T04:10:29;4.13;;;2.47;;
55647;SDS011;45266;48.756;9.246;2023-07-29T04:11:34;7.47;;;2.45;;
55647;SDS011;45266;48.756;9.246;2023-07-29T04:12:36;2.47;;;2.17;;
55647;SDS011;45266;48.756;9.246;2023-07-29T04:13:39;4.13;;;2.53;;
55647;SDS011;45266;48.756;9.246;2023-07-29T04:14:43;5.32;;;2.40;;
55647;SDS011;45266;48.756;9.246;2023-07-29T04:15:46;5.88;;;2.28;;
55647;SDS011;45266;48.756;9.246;2023-07-29T04:16:49;5.40;;;2.25;;
55647;SDS011;45266;48.756;9.246;2023-07-29T04:17:55;4.25;;;2.28;;
55647;SDS011;45266;48.756;9.246;2023-07-29T04:18:57;6.65;;;2.47;;
55647;SDS011;45266;48.756;9.246;2023-07-29T04:19:59;4.88;;;2.47;;
55647;SDS011;45266;48.756;9.246;2023-07-29T04:21:00;3.97;;;2.47;;
55647;SDS011;45266;48.756;9.246;2023-07-29T04:22:04;5.13;;;2.65;;
55647;SDS011;45266;48.756;9.246;2023-07-29T04:23:11;2.95;;;2.25;;
55647;SDS011;45266;48.756;9.246;2023-07-29T04:24:16;4.18;;;2.50;;
55647;SDS011;45266;48.756;9.246;2023-07-29T04:25:18;4.25;;;2.53;;
55647;SDS011;45266;48.756;9.246;2023-07-29T04:26:21;5.55;;;3.55;;
55647;SDS011;45266;48.756;9.246;2023-07-29T04:27:23;4.85;;;2.60;;
55647;SDS011;45266;48.756;9.246;2023-07-29T04:28:26;3.33;;;2.60;;
55647;SDS011;45266;48.756;9.246;2023-07-29T04:29:28;5.95;;;2.40;;
55647;SDS011;45266;48.756;9.246;2023-07-29T04:30:37;4.07;;;2.45;;
55647;SDS011;45266;48.756;9.246;2023-07-29T04:31:41;5.80;;;2.60;;
55647;SDS011;45266;48.756;9.246;2023-07-29T04:32:53;5.65;;;2.42;;
55647;SDS011;45266;48.756;9.246;2023-07-29T04:33:56;4.32;;;2.35;;
55647;SDS011;45266;48.756;9.246;2023-07-29T04:34:58;3.22;;;2.70;;
55647;SDS011;45266;48.756;9.246;2023-07-29T04:35:59;5.85;;;2.88;;
55647;SDS011;45266;48.756;9.246;2023-07-29T04:37:02;3.28;;;2.90;;
55647;SDS011;45266;48.756;9.246;2023-07-29T04:38:04;9.60;;;3.10;;
55647;SDS011;45266;48.756;9.246;2023-07-29T04:39:06;3.10;;;2.55;;
55647;SDS011;45266;48.756;9.246;2023-07-29T04:40:08;4.28;;;2.90;;
55647;SDS011;45266;48.756;9.246;2023-07-29T04:41:10;5.10;;;2.90;;
55647;SDS011;45266;48.756;9.246;2023-07-29T04:42:12;3.17;;;2.88;;
55647;SDS011;45266;48.756;9.246;2023-07-29T04:43:15;5.25;;;3.92;;
55647;SDS011;45266;48.756;9.246;2023-07-29T04:44:21;5.18;;;4.20;;
55647;SDS011;45266;48.756;9.246;2023-07-29T04:45:27;9.27;;;3.85;;
55647;SDS011;45266;48.756;9.246;2023-07-29T04:46:32;8.50;;;3.03;;
55647;SDS011;45266;48.756;9.246;2023-07-29T04:47:36;5.05;;;2.92;;
55647;SDS011;45266;48.756;9.246;2023-07-29T04:48:40;4.72;;;2.95;;
55647;SDS011;45266;48.756;9.246;2023-07-29T04:49:44;4.32;;;3.10;;
55647;SDS011;45266;48.756;9.246;2023-07-29T04:50:49;8.77;;;2.95;;
55647;SDS011;45266;48.756;9.246;2023-07-29T04:51:59;11.07;;;4.45;;
55647;SDS011;45266;48.756;9.246;2023-07-29T04:53:03;3.88;;;2.97;;
55647;SDS011;45266;48.756;9.246;2023-07-29T04:54:07;10.23;;;3.15;;
55647;SDS011;45266;48.756;9.246;2023-07-29T04:55:09;4.00;;;2.85;;
55647;SDS011;45266;48.756;9.246;2023-07-29T04:56:11;6.95;;;3.00;;
55647;SDS011;45266;48.756;9.246;2023-07-29T04:57:17;6.15;;;3.15;;
55647;SDS011;45266;48.756;9.246;2023-07-29T04:58:24;6.32;;;2.90;;
55647;SDS011;45266;48.756;9.246;2023-07-29T04:59:36;5.15;;;2.90;;
55647;SDS011;45266;48.756;9.246;2023-07-29T05:00:38;7.38;;;2.65;;
55647;SDS011;45266;48.756;9.246;2023-07-29T05:01:40;9.05;;;3.53;;
55647;SDS011;45266;48.756;9.246;2023-07-29T05:02:44;5.55;;;2.97;;
55647;SDS011;45266;48.756;9.246;2023-07-29T05:03:47;6.40;;;3.25;;
55647;SDS011;45266;48.756;9.246;2023-07-29T05:04:52;7.28;;;3.65;;
55647;SDS011;45266;48.756;9.246;2023-07-29T05:06:06;7.68;;;4.10;;
55647;SDS011;45266;48.756;9.246;2023-07-29T05:07:11;11.05;;;6.05;;
55647;SDS011;45266;48.756;9.246;2023-07-29T05:08:20;11.40;;;5.45;;
55647;SDS011;45266;48.756;9.246;2023-07-29T05:09:22;5.63;;;3.30;;
55647;SDS011;45266;48.756;9.246;2023-07-29T05:10:26;9.68;;;4.85;;
55647;SDS011;45266;48.756;9.246;2023-07-29T05:11:38;6.32;;;4.53;;
55647;SDS011;45266;48.756;9.246;2023-07-29T05:12:54;5.95;;;3.47;;
55647;SDS011;45266;48.756;9.246;2023-07-29T05:14:04;4.82;;;3.42;;
55647;SDS011;45266;48.756;9.246;2023-07-29T05:15:08;4.65;;;3.00;;
55647;SDS011;45266;48.756;9.246;2023-07-29T05:16:12;6.38;;;2.92;;
55647;SDS011;45266;48.756;9.246;2023-07-29T05:17:21;4.18;;;2.72;;
55647;SDS011;45266;48.756;9.246;2023-07-29T05:18:25;4.10;;;3.20;;
55647;SDS011;45266;48.756;9.246;2023-07-29T05:19:30;5.57;;;3.42;;
55647;SDS011;45266;48.756;9.246;2023-07-29T05:20:44;4.15;;;2.80;;
55647;SDS011;45266;48.756;9.246;2023-07-29T05:21:53;4.72;;;3.08;;
55647;SDS011;45266;48.756;9.246;2023-07-29T05:22:58;3.70;;;3.20;;
55647;SDS011;45266;48.756;9.246;2023-07-29T05:24:03;4.68;;;2.60;;
55647;SDS011;45266;48.756;9.246;2023-07-29T05:25:08;7.05;;;2.78;;
55647;SDS011;45266;48.756;9.246;2023-07-29T05:26:12;4.80;;;2.65;;
55647;SDS011;45266;48.756;9.246;2023-07-29T05:27:15;7.85;;;3.22;;
55647;SDS011;45266;48.756;9.246;2023-07-29T05:28:24;8.07;;;2.80;;
55647;SDS011;45266;48.756;9.246;2023-07-29T05:29:30;3.88;;;2.63;;
55647;SDS011;45266;48.756;9.246;2023-07-29T05:30:34;5.47;;;2.60;;
55647;SDS011;45266;48.756;9.246;2023-07-29T05:31:40;2.85;;;2.35;;
55647;SDS011;45266;48.756;9.246;2023-07-29T05:32:44;3.90;;;2.20;;
55647;SDS011;45266;48.756;9.246;2023-07-29T05:33:48;3.30;;;2.63;;
55647;SDS011;45266;48.756;9.246;2023-07-29T05:34:50;4.07;;;2.67;;
55647;SDS011;45266;48.756;9.246;2023-07-29T05:35:54;3.53;;;2.45;;
55647;SDS011;45266;48.756;9.246;2023-07-29T05:36:56;3.47;;;2.35;;
55647;SDS011;45266;48.756;9.246;2023-07-29T05:37:58;6.70;;;2.88;;
55647;SDS011;45266;48.756;9.246;2023-07-29T05:39:00;4.72;;;2.40;;
55647;SDS011;45266;48.756;9.246;2023-07-29T05:40:02;3.78;;;2.58;;
55647;SDS011;45266;48.756;9.246;2023-07-29T05:41:06;4.20;;;2.70;;
55647;SDS011;45266;48.756;9.246;2023-07-29T05:42:19;3.88;;;2.67;;
55647;SDS011;45266;48.756;9.246;2023-07-29T05:43:25;2.95;;;2.35;;
55647;SDS011;45266;48.756;9.246;2023-07-29T05:44:30;5.65;;;2.40;;
55647;SDS011;45266;48.756;9.246;2023-07-29T05:45:32;4.85;;;2.33;;
55647;SDS011;45266;48.756;9.246;2023-07-29T05:46:34;4.82;;;2.88;;
55647;SDS011;45266;48.756;9.246;2023-07-29T05:47:39;2.97;;;2.40;;
55647;SDS011;45266;48.756;9.246;2023-07-29T05:48:51;4.68;;;2.80;;
55647;SDS011;45266;48.756;9.246;2023-07-29T05:50:03;4.50;;;2.92;;
55647;SDS011;45266;48.756;9.246;2023-07-29T05:51:10;4.45;;;3.00;;
55647;SDS011;45266;48.756;9.246;2023-07-29T05:52:13;4.28;;;3.10;;
55647;SDS011;45266;48.756;9.246;2023-07-29T05:53:15;7.95;;;2.95;;
55647;SDS011;45266;48.756;9.246;2023-07-29T05:54:20;3.15;;;2.80;;
55647;SDS011;45266;48.756;9.246;2023-07-29T05:55:24;3.25;;;2.47;;
55647;SDS011;45266;48.756;9.246;2023-07-29T05:56:37;4.18;;;2.65;;
55647;SDS011;45266;48.756;9.246;2023-07-29T05:57:41;4.43;;;2.72;;
55647;SDS011;45266;48.756;9.246;2023-07-29T05:58:44;4.88;;;2.60;;
55647;SDS011;45266;48.756;9.246;2023-07-29T05:59:47;3.17;;;2.53;;
55647;SDS011;45266;48.756;9.246;2023-07-29T06:00:50;4.95;;;2.60;;
55647;SDS011;45266;48.756;9.246;2023-07-29T06:01:52;4.25;;;2.95;;
55647;SDS011;45266;48.756;9.246;2023-07-29T06:02:54;4.65;;;3.00;;
55647;SDS011;45266;48.756;9.246;2023-07-29T06:03:57;3.42;;;3.05;;
55647;SDS011;45266;48.756;9.246;2023-07-29T06:05:02;3.10;;;2.65;;
55647;SDS011;45266;48.756;9.246;2023-07-29T06:06:05;4.53;;;2.90;;
55647;SDS011;45266;48.756;9.246;2023-07-29T06:07:10;5.32;;;3.10;;
55647;SDS011;45266;48.756;9.246;2023-07-29T06:08:20;3.95;;;3.03;;
55647;SDS011;45266;48.756;9.246;2023-07-29T06:09:26;2.85;;;2.60;;
55647;SDS011;45266;48.756;9.246;2023-07-29T06:10:31;3.83;;;2.83;;
55647;SDS011;45266;48.756;9.246;2023-07-29T06:11:35;3.25;;;2.83;;
55647;SDS011;45266;48.756;9.246;2023-07-29T06:12:40;3.13;;;2.60;;
55647;SDS011;45266;48.756;9.246;2023-07-29T06:13:48;4.97;;;2.60;;
55647;SDS011;45266;48.756;9.246;2023-07-29T06:15:02;3.00;;;2.70;;
55647;SDS011;45266;48.756;9.246;2023-07-29T06:16:14;4.25;;;2.78;;
55647;SDS011;45266;48.756;9.246;2023-07-29T06:17:23;4.45;;;3.15;;
55647;SDS011;45266;48.756;9.246;2023-07-29T06:18:28;5.85;;;3.17;;
55647;SDS011;45266;48.756;9.246;2023-07-29T06:19:32;3.72;;;2.88;;
55647;SDS011;45266;48.756;9.246;2023-07-29T06:20:35;3.78;;;2.85;;
55647;SDS011;45266;48.756;9.246;2023-07-29T06:21:38;4.32;;;2.50;;
55647;SDS011;45266;48.756;9.246;2023-07-29T06:22:41;2.95;;;2.55;;
55647;SDS011;45266;48.756;9.246;2023-07-29T06:23:44;4.28;;;3.00;;
55647;SDS011;45266;48.756;9.246;2023-07-29T06:24:46;3.08;;;2.72;;
55647;SDS011;45266;48.756;9.246;2023-07-29T06:25:49;4.07;;;2.55;;
55647;SDS011;45266;48.756;9.246;2023-07-29T06:26:51;3.25;;;2.88;;
55647;SDS011;45266;48.756;9.246;2023-07-29T06:27:54;3.85;;;2.75;;
55647;SDS011;45266;48.756;9.246;2023-07-29T06:29:03;3.72;;;2.75;;
55647;SDS011;45266;48.756;9.246;2023-07-29T06:30:09;5.60;;;3.05;;
55647;SDS011;45266;48.756;9.246;2023-07-29T06:31:13;3.75;;;2.67;;
55647;SDS011;45266;48.756;9.246;2023-07-29T06:32:18;3.45;;;2.30;;
55647;SDS011;45266;48.756;9.246;2023-07-29T06:33:22;5.57;;;3.10;;
55647;SDS011;45266;48.756;9.246;2023-07-29T06:34:26;3.70;;;2.60;;
55647;SDS011;45266;48.756;9.246;2023-07-29T06:35:30;3.33;;;2.55;;
55647;SDS011;45266;48.756;9.246;2023-07-29T06:36:32;3.35;;;2.58;;
55647;SDS011;45266;48.756;9.246;2023-07-29T06:37:35;4.53;;;2.70;;
55647;SDS011;45266;48.756;9.246;2023-07-29T06:38:37;3.85;;;2.90;;
55647;SDS011;45266;48.756;9.246;2023-07-29T06:39:40;3.22;;;2.55;;
55647;SDS011;45266;48.756;9.246;2023-07-29T06:40:43;4.13;;;2.70;;
55647;SDS011;45266;48.756;9.246;2023-07-29T06:41:48;6.05;;;3.15;;